Time;durP1;ratioP1;P1;durP2;ratioP2;P2;SDS_P1;SDS_P2;PMS_P1;PMS_P2;Temp;Humidity;BMP_temperature;BMP_pressure;BME280_temperature;BME280_humidity;BME280_pressure;Samples;Min_cycle;Max_cycle;Signal;HPM_P1;HPM_P2
2023/07/18 00:00:33;;;;;;;2.00;1.33;;;;;14.20;101658.00;;;;10136182;29;20222;-75
2023/07/18 00:05:36;;;;;;;4.33;2.10;;;;;14.10;101654.00;;;;10120822;29;20254;-75
2023/07/18 00:10:39;;;;;;;3.70;1.33;;;;;14.00;101655.00;;;;10136452;29;20218;-75
2023/07/18 00:15:41;;;;;;;4.03;1.20;;;;;14.00;101654.00;;;;10137687;29;20283;-74
2023/07/18 00:20:42;;;;;;;3.10;1.40;;;;;13.90;101652.00;;;;10135838;29;20302;-75
2023/07/18 00:25:44;;;;;;;3.23;1.40;;;;;13.90;101643.00;;;;10135755;29;20195;-75
2023/07/18 00:30:45;;;;;;;6.43;1.57;;;;;13.80;101645.00;;;;10137906;29;20199;-74
2023/07/18 00:35:47;;;;;;;4.00;1.57;;;;;13.60;101637.00;;;;10135512;29;20673;-75
2023/07/18 00:40:49;;;;;;;8.03;1.70;;;;;13.50;101633.00;;;;10135681;29;20669;-75
2023/07/18 00:45:52;;;;;;;5.57;1.90;;;;;13.40;101627.00;;;;10135254;29;20251;-75
2023/07/18 00:50:53;;;;;;;9.33;1.60;;;;;13.30;101629.00;;;;10135497;29;20255;-74
2023/07/18 00:55:55;;;;;;;6.73;1.60;;;;;13.30;101626.00;;;;10134691;29;20734;-74
2023/07/18 01:00:56;;;;;;;2.97;1.60;;;;;13.40;101627.00;;;;10136068;29;20302;-75
2023/07/18 01:05:58;;;;;;;3.73;1.70;;;;;13.40;101632.00;;;;10135643;29;20207;-75
2023/07/18 01:11:04;;;;;;;5.20;2.00;;;;;13.30;101620.00;;;;10135644;29;20231;-75
2023/07/18 01:16:07;;;;;;;3.60;1.60;;;;;13.20;101623.00;;;;10119924;29;20586;-75
2023/07/18 01:21:11;;;;;;;6.73;2.07;;;;;13.10;101629.00;;;;10135858;29;20215;-75
2023/07/18 01:26:13;;;;;;;4.17;1.53;;;;;13.00;101623.00;;;;10135629;29;20532;-76
2023/07/18 01:31:15;;;;;;;5.67;1.83;;;;;12.90;101621.00;;;;10136595;29;20222;-75
2023/07/18 01:36:16;;;;;;;6.70;2.20;;;;;12.90;101621.00;;;;10136596;29;20231;-74
2023/07/18 01:41:17;;;;;;;6.83;1.90;;;;;12.80;101606.00;;;;10134564;29;20251;-75
2023/07/18 01:46:19;;;;;;;4.03;1.57;;;;;12.70;101625.00;;;;10142433;29;20235;-74
2023/07/18 01:51:20;;;;;;;7.13;2.13;;;;;12.70;101617.00;;;;10142041;29;20195;-75
2023/07/18 01:56:23;;;;;;;5.13;2.00;;;;;12.60;101613.00;;;;10140657;29;20207;-75
2023/07/18 02:01:26;;;;;;;3.23;1.80;;;;;12.60;101606.00;;;;10109516;29;20227;-75
2023/07/18 02:06:27;;;;;;;5.63;2.07;;;;;12.50;101596.00;;;;10125502;29;20408;-76
2023/07/18 02:11:28;;;;;;;5.40;1.90;;;;;12.50;101595.00;;;;10125675;29;20199;-75
2023/07/18 02:16:30;;;;;;;7.17;1.83;;;;;12.50;101596.00;;;;10139323;29;20212;-77
2023/07/18 02:21:32;;;;;;;8.03;2.00;;;;;12.40;101601.00;;;;10101256;29;20245;-75
2023/07/18 02:26:33;;;;;;;5.30;2.13;;;;;12.40;101595.00;;;;10101136;29;20291;-74
2023/07/18 02:31:35;;;;;;;5.23;2.13;;;;;12.40;101589.00;;;;10109507;29;20309;-74
2023/07/18 02:36:36;;;;;;;3.23;1.57;;;;;12.30;101591.00;;;;10139622;29;20201;-73
2023/07/18 02:41:38;;;;;;;9.03;1.70;;;;;12.20;101597.00;;;;10161405;29;20301;-72
2023/07/18 02:46:39;;;;;;;4.33;2.10;;;;;12.20;101597.00;;;;10176387;29;20286;-73
2023/07/18 02:51:40;;;;;;;7.60;1.80;;;;;12.10;101584.00;;;;10176638;29;20222;-73
2023/07/18 02:56:42;;;;;;;5.97;2.00;;;;;12.00;101583.00;;;;10175726;29;20210;-73
2023/07/18 03:01:44;;;;;;;2.47;1.40;;;;;12.00;101579.00;;;;10127128;29;20679;-73
2023/07/18 03:06:52;;;;;;;4.67;1.80;;;;;12.00;101574.00;;;;10098741;29;20200;-74
2023/07/18 03:11:54;;;;;;;3.30;1.73;;;;;12.00;101583.00;;;;10098197;29;20207;-74
2023/07/18 03:16:56;;;;;;;3.53;1.70;;;;;11.90;101584.00;;;;10098624;29;20230;-74
2023/07/18 03:21:58;;;;;;;4.73;2.03;;;;;11.90;101580.00;;;;10098765;29;20570;-73
2023/07/18 03:26:59;;;;;;;5.83;2.10;;;;;11.80;101576.00;;;;10155084;29;20289;-73
2023/07/18 03:32:00;;;;;;;2.77;1.90;;;;;11.80;101573.00;;;;10177566;29;20211;-73
2023/07/18 03:37:02;;;;;;;3.70;1.90;;;;;11.70;101576.00;;;;10175510;29;20209;-73
2023/07/18 03:42:04;;;;;;;4.23;1.73;;;;;11.70;101578.00;;;;10177780;29;20222;-73
2023/07/18 03:47:06;;;;;;;4.33;1.70;;;;;11.70;101572.00;;;;10177168;29;20191;-73
2023/07/18 03:52:11;;;;;;;5.97;2.03;;;;;11.70;101580.00;;;;10176258;29;20242;-73
2023/07/18 03:57:14;;;;;;;6.17;2.10;;;;;11.70;101569.00;;;;10161915;29;20215;-74
2023/07/18 04:02:15;;;;;;;5.93;2.40;;;;;11.70;101572.00;;;;10136025;29;20223;-75
2023/07/18 04:07:18;;;;;;;3.03;1.83;;;;;11.70;101575.00;;;;10136227;29;20202;-73
2023/07/18 04:12:20;;;;;;;8.03;2.10;;;;;11.70;101571.00;;;;10136687;29;20204;-72
2023/07/18 04:17:22;;;;;;;6.03;2.03;;;;;11.70;101564.00;;;;10127640;29;20208;-73
2023/07/18 04:22:24;;;;;;;5.20;2.53;;;;;12.00;101566.00;;;;10096711;29;20244;-73
2023/07/18 04:27:27;;;;;;;6.10;2.10;;;;;12.10;101557.00;;;;10154025;29;20220;-74
2023/07/18 04:32:28;;;;;;;4.50;2.00;;;;;12.20;101558.00;;;;10141877;29;20195;-74
2023/07/18 04:37:30;;;;;;;5.43;2.20;;;;;12.30;101558.00;;;;10135638;29;20235;-74
2023/07/18 04:42:32;;;;;;;3.63;2.10;;;;;12.50;101549.00;;;;10135483;29;20566;-74
2023/07/18 04:47:33;;;;;;;4.60;2.27;;;;;12.60;101550.00;;;;10163883;29;20215;-74
2023/07/18 04:52:35;;;;;;;5.17;2.07;;;;;12.80;101542.00;;;;10096718;29;20200;-73
2023/07/18 04:57:36;;;;;;;6.57;2.30;;;;;13.00;101549.00;;;;10095229;29;20196;-73
2023/07/18 05:02:38;;;;;;;4.83;1.90;;;;;13.30;101537.00;;;;10095497;29;20229;-73
2023/07/18 05:07:41;;;;;;;6.17;2.27;;;;;13.80;101546.00;;;;10116913;29;20573;-74
2023/07/18 05:12:43;;;;;;;10.60;2.27;;;;;14.30;101539.00;;;;10149074;29;20554;-76
2023/07/18 05:17:45;;;;;;;4.30;2.17;;;;;14.70;101544.00;;;;10126778;29;20339;-74
2023/07/18 05:22:46;;;;;;;7.10;1.83;;;;;15.20;101542.00;;;;10159766;29;20652;-73
2023/07/18 05:27:48;;;;;;;6.93;1.93;;;;;15.50;101549.00;;;;10145506;29;20217;-73
2023/07/18 05:32:52;;;;;;;5.57;2.23;;;;;15.80;101537.00;;;;10142448;29;20207;-73
2023/07/18 05:37:54;;;;;;;7.20;2.40;;;;;16.10;101532.00;;;;10141236;29;20192;-73
2023/07/18 05:42:56;;;;;;;3.78;1.88;;;;;16.60;101535.00;;;;10144031;29;20287;-74
2023/07/18 05:47:57;;;;;;;8.60;2.10;;;;;17.40;101533.00;;;;10143173;29;20196;-74
2023/07/18 05:52:59;;;;;;;4.93;1.55;;;;;18.20;101542.00;;;;10141720;29;20204;-73
2023/07/18 05:58:00;;;;;;;4.03;1.50;;;;;18.90;101529.00;;;;10142159;29;20235;-75
2023/07/18 06:03:01;;;;;;;3.75;1.70;;;;;19.40;101529.00;;;;10141775;29;20215;-75
2023/07/18 06:08:03;;;;;;;6.90;1.73;;;;;19.90;101532.00;;;;10141684;29;20203;-74
2023/07/18 06:13:05;;;;;;;7.00;1.73;;;;;20.20;101531.00;;;;10114094;29;20203;-75
2023/07/18 06:18:06;;;;;;;5.50;1.35;;;;;20.60;101540.00;;;;10111175;29;20315;-76
2023/07/18 06:23:07;;;;;;;4.70;1.52;;;;;21.20;101549.00;;;;10105873;29;20238;-74
2023/07/18 06:28:09;;;;;;;4.50;1.20;;;;;21.30;101547.00;;;;10134056;29;20209;-74
2023/07/18 06:33:10;;;;;;;5.28;1.48;;;;;21.40;101545.00;;;;10129979;29;20573;-74
2023/07/18 06:38:13;;;;;;;3.45;1.38;;;;;21.70;101549.00;;;;10118496;29;20264;-74
2023/07/18 06:43:15;;;;;;;4.63;1.20;;;;;21.50;101539.00;;;;10128028;29;20323;-74
2023/07/18 06:48:17;;;;;;;4.20;1.42;;;;;21.70;101539.00;;;;10125107;29;20207;-73
2023/07/18 06:53:20;;;;;;;5.90;1.23;;;;;22.40;101545.00;;;;10129774;29;20301;-76
2023/07/18 06:58:22;;;;;;;7.90;1.40;;;;;23.00;101552.00;;;;10118443;29;20204;-73
2023/07/18 07:03:23;;;;;;;5.05;1.05;;;;;23.20;101546.00;;;;10130682;29;20235;-76
2023/07/18 07:08:25;;;;;;;4.00;1.08;;;;;23.50;101546.00;;;;10118109;29;20290;-75
2023/07/18 07:13:29;;;;;;;5.57;1.23;;;;;23.80;101541.00;;;;10128484;29;20230;-75
2023/07/18 07:18:31;;;;;;;3.30;1.25;;;;;24.40;101535.00;;;;10112892;29;20208;-76
2023/07/18 07:23:33;;;;;;;5.00;1.27;;;;;24.60;101540.00;;;;10114762;29;20223;-75
2023/07/18 07:28:35;;;;;;;3.53;1.13;;;;;24.50;101544.00;;;;10129993;29;20214;-75
2023/07/18 07:33:37;;;;;;;4.75;0.90;;;;;24.60;101538.00;;;;10127995;29;20586;-76
2023/07/18 07:38:38;;;;;;;6.57;1.58;;;;;25.20;101530.00;;;;10142977;29;20292;-76
2023/07/18 07:43:39;;;;;;;1.95;1.20;;;;;25.60;101536.00;;;;10133969;29;20284;-76
2023/07/18 07:48:41;;;;;;;4.55;1.00;;;;;24.70;101535.00;;;;10123994;29;20215;-76
2023/07/18 07:53:43;;;;;;;3.90;0.90;;;;;25.40;101546.00;;;;10122711;29;20681;-76
2023/07/18 07:58:44;;;;;;;4.85;1.10;;;;;25.50;101531.00;;;;10127135;29;20215;-76
2023/07/18 08:04:02;;;;;;;2.13;1.00;;;;;25.50;101540.00;;;;10105104;29;20573;-77
2023/07/18 08:09:04;;;;;;;1.88;1.00;;;;;24.60;101538.00;;;;10124349;29;20201;-76
2023/07/18 08:14:07;;;;;;;6.20;1.15;;;;;25.00;101525.00;;;;10129494;29;20613;-76
2023/07/18 08:19:09;;;;;;;3.47;0.80;;;;;26.00;101534.00;;;;10154174;29;20203;-75
2023/07/18 08:24:10;;;;;;;1.85;0.65;;;;;25.90;101539.00;;;;10108145;29;20202;-73
2023/07/18 08:29:12;;;;;;;3.13;0.73;;;;;25.10;101530.00;;;;10126894;29;20283;-75
2023/07/18 08:34:13;;;;;;;5.78;0.98;;;;;26.90;101511.00;;;;10134872;29;20681;-75
2023/07/18 08:39:15;;;;;;;2.13;0.80;;;;;26.20;101509.00;;;;10123025;29;20717;-74
2023/07/18 08:44:19;;;;;;;1.48;0.90;;;;;24.80;101503.00;;;;10111437;29;20302;-75
2023/07/18 08:49:23;;;;;;;3.55;0.88;;;;;24.10;101499.00;;;;10125381;29;20295;-74
2023/07/18 08:54:24;;;;;;;1.88;0.68;;;;;24.10;101494.00;;;;10128396;29;20337;-75
2023/07/18 08:59:27;;;;;;;4.80;0.70;;;;;24.30;101485.00;;;;10119260;29;20224;-74
2023/07/18 09:04:30;;;;;;;2.13;0.70;;;;;24.30;101477.00;;;;10114721;29;20218;-75
2023/07/18 09:09:32;;;;;;;2.58;0.70;;;;;24.20;101472.00;;;;10120562;29;20199;-76
2023/07/18 09:14:34;;;;;;;1.60;0.60;;;;;24.40;101476.00;;;;10113556;29;20276;-75
2023/07/18 09:19:42;;;;;;;2.15;0.55;;;;;24.50;101474.00;;;;10124987;29;20246;-75
2023/07/18 09:24:46;;;;;;;1.17;0.60;;;;;24.80;101460.00;;;;10120667;29;20200;-75
2023/07/18 09:29:49;;;;;;;3.25;0.60;;;;;24.40;101443.00;;;;10125053;29;20211;-75
2023/07/18 09:34:56;;;;;;;1.60;0.63;;;;;24.50;101439.00;;;;10129371;29;20293;-77
2023/07/18 09:39:57;;;;;;;1.98;0.88;;;;;24.50;101424.00;;;;10096867;29;20223;-77
2023/07/18 09:44:59;;;;;;;1.75;0.90;;;;;25.20;101401.00;;;;10110412;29;20222;-77
2023/07/18 09:50:13;;;;;;;2.47;0.52;;;;;25.90;101404.00;;;;10128231;29;20204;-78
2023/07/18 09:55:24;;;;;;;1.33;0.70;;;;;25.90;101410.00;;;;10128882;29;20678;-77
2023/07/18 10:00:26;;;;;;;1.73;0.70;;;;;25.00;101410.00;;;;10118470;29;20318;-77
2023/07/18 10:05:28;;;;;;;0.75;0.55;;;;;24.80;101404.00;;;;10126601;29;20200;-78
2023/07/18 10:10:29;;;;;;;1.02;0.60;;;;;25.20;101405.00;;;;10129427;29;20211;-78
2023/07/18 10:16:17;;;;;;;1.40;0.55;;;;;25.60;101408.00;;;;10130094;29;20215;-78
2023/07/18 10:21:43;;;;;;;1.70;0.80;;;;;27.10;101411.00;;;;10118557;29;20235;-75
2023/07/18 10:27:00;;;;;;;1.80;0.80;;;;;28.20;101399.00;;;;10127741;29;20588;-78
2023/07/18 10:32:29;;;;;;;1.52;0.70;;;;;29.00;101413.00;;;;10143686;29;20210;-75
2023/07/18 10:37:31;;;;;;;4.68;0.98;;;;;29.10;101414.00;;;;10123284;29;20690;-79
2023/07/18 10:42:34;;;;;;;3.35;0.80;;;;;29.70;101418.00;;;;10149544;29;20223;-76
2023/07/18 10:47:37;;;;;;;2.85;0.75;;;;;30.30;101414.00;;;;10117539;29;20216;-74
2023/07/18 10:52:41;;;;;;;1.55;0.80;;;;;30.50;101414.00;;;;10130339;29;20560;-75
2023/07/18 10:57:42;;;;;;;2.30;0.90;;;;;30.70;101416.00;;;;10132839;29;20575;-75
2023/07/18 11:02:44;;;;;;;2.53;0.90;;;;;30.90;101411.00;;;;10131617;29;20227;-77
2023/07/18 11:07:48;;;;;;;1.67;0.90;;;;;31.10;101404.00;;;;10118544;29;20271;-76
2023/07/18 11:12:52;;;;;;;2.85;0.93;;;;;31.40;101418.00;;;;10134156;29;20231;-74
2023/07/18 11:17:53;;;;;;;3.30;0.95;;;;;31.70;101390.00;;;;10130107;29;20647;-74
2023/07/18 11:22:56;;;;;;;2.08;1.13;;;;;31.70;101377.00;;;;10125392;29;20694;-75
2023/07/18 11:27:57;;;;;;;4.50;1.08;;;;;32.00;101382.00;;;;10118850;29;20214;-79
2023/07/18 11:32:58;;;;;;;3.35;1.08;;;;;31.90;101383.00;;;;10120177;29;20212;-77
2023/07/18 11:37:59;;;;;;;8.48;1.40;;;;;31.80;101372.00;;;;10132983;29;20291;-77
2023/07/18 11:43:01;;;;;;;4.70;1.17;;;;;32.00;101376.00;;;;10141231;29;20253;-77
2023/07/18 11:48:04;;;;;;;3.15;1.05;;;;;32.20;101359.00;;;;10145532;29;20207;-74
2023/07/18 11:53:06;;;;;;;2.53;1.25;;;;;32.30;101361.00;;;;10130768;29;20653;-74
2023/07/18 11:58:09;;;;;;;4.10;1.38;;;;;32.60;101347.00;;;;10133347;29;20251;-75
2023/07/18 12:03:11;;;;;;;3.30;1.23;;;;;32.50;101333.00;;;;10135428;29;20701;-74
2023/07/18 12:08:13;;;;;;;2.47;1.02;;;;;32.40;101323.00;;;;10139488;29;20210;-75
2023/07/18 12:13:16;;;;;;;2.83;1.50;;;;;32.20;101309.00;;;;10140572;29;20207;-74
2023/07/18 12:18:18;;;;;;;4.10;1.40;;;;;32.60;101291.00;;;;10110691;29;20270;-75
2023/07/18 12:23:19;;;;;;;2.13;1.30;;;;;32.90;101273.00;;;;10119573;29;20224;-76
2023/07/18 12:28:20;;;;;;;6.85;1.75;;;;;32.40;101269.00;;;;10108659;29;20734;-74
2023/07/18 12:33:23;;;;;;;5.70;1.48;;;;;32.20;101258.00;;;;10133166;29;20242;-74
2023/07/18 12:38:24;;;;;;;2.15;1.50;;;;;32.00;101264.00;;;;10119077;29;20207;-79
2023/07/18 12:43:29;;;;;;;2.53;1.70;;;;;30.80;101261.00;;;;10121240;29;20255;-78
2023/07/18 12:48:48;;;;;;;5.80;1.73;;;;;31.00;101252.00;;;;10117587;29;20215;-78
2023/07/18 12:53:52;;;;;;;3.10;1.60;;;;;32.00;101242.00;;;;10133546;29;20217;-76
2023/07/18 12:58:53;;;;;;;5.78;1.80;;;;;32.70;101223.00;;;;10144326;29;20212;-74
2023/07/18 13:03:55;;;;;;;3.42;1.52;;;;;32.60;101241.00;;;;10124348;29;20310;-74
2023/07/18 13:08:56;;;;;;;4.00;1.55;;;;;32.20;101237.00;;;;10126361;29;20237;-73
2023/07/18 13:13:58;;;;;;;2.40;1.38;;;;;31.80;101231.00;;;;10127380;29;20251;-74
2023/07/18 13:18:59;;;;;;;3.28;1.67;;;;;30.80;101219.00;;;;10106795;29;20216;-76
2023/07/18 13:24:00;;;;;;;3.10;1.55;;;;;30.90;101221.00;;;;10118057;29;20264;-75
2023/07/18 13:29:03;;;;;;;2.17;1.50;;;;;31.60;101214.00;;;;10128003;29;20666;-75
2023/07/18 13:34:06;;;;;;;4.40;1.52;;;;;31.10;101200.00;;;;10116153;29;20668;-75
2023/07/18 13:39:08;;;;;;;3.03;1.65;;;;;30.60;101194.00;;;;10134090;29;20208;-74
2023/07/18 13:44:09;;;;;;;5.38;1.83;;;;;30.00;101197.00;;;;10137147;29;20235;-75
2023/07/18 13:49:11;;;;;;;3.63;1.63;;;;;30.40;101184.00;;;;10122451;29;20226;-75
2023/07/18 13:54:12;;;;;;;2.75;1.55;;;;;30.20;101186.00;;;;10138761;29;20259;-74
2023/07/18 13:59:13;;;;;;;3.42;1.80;;;;;29.90;101180.00;;;;10118153;29;20221;-74
2023/07/18 14:04:15;;;;;;;3.78;1.75;;;;;30.50;101170.00;;;;10104563;29;20558;-74
2023/07/18 14:09:16;;;;;;;2.38;1.55;;;;;31.00;101163.00;;;;10123634;29;20208;-74
2023/07/18 14:14:18;;;;;;;4.47;1.85;;;;;31.00;101151.00;;;;10126867;29;20203;-76
2023/07/18 14:19:19;;;;;;;4.65;1.70;;;;;31.00;101151.00;;;;10120104;29;20203;-75
2023/07/18 14:24:21;;;;;;;3.50;1.98;;;;;31.30;101145.00;;;;10134112;29;20202;-73
2023/07/18 14:29:23;;;;;;;4.25;1.80;;;;;31.30;101131.00;;;;10127745;29;20231;-76
2023/07/18 14:34:25;;;;;;;2.67;1.60;;;;;30.90;101134.00;;;;10132845;29;20200;-74
2023/07/18 14:39:27;;;;;;;2.30;1.63;;;;;29.70;101131.00;;;;10120681;29;20206;-75
2023/07/18 14:44:28;;;;;;;4.45;2.15;;;;;29.20;101126.00;;;;10151777;29;20295;-74
2023/07/18 14:49:30;;;;;;;3.70;2.03;;;;;29.20;101112.00;;;;10120395;29;20216;-75
2023/07/18 14:54:31;;;;;;;3.25;1.83;;;;;29.40;101095.00;;;;10120739;29;20249;-74
2023/07/18 14:59:32;;;;;;;3.45;1.80;;;;;29.80;101096.00;;;;10137801;29;20634;-74
2023/07/18 15:04:34;;;;;;;2.92;1.83;;;;;30.00;101091.00;;;;10103479;29;20199;-74
2023/07/18 15:09:36;;;;;;;2.10;1.55;;;;;29.60;101084.00;;;;10126529;29;20711;-74
2023/07/18 15:14:37;;;;;;;4.63;1.52;;;;;30.40;101071.00;;;;10125490;29;20234;-74
2023/07/18 15:19:38;;;;;;;4.28;2.35;;;;;31.20;101066.00;;;;10129129;29;20586;-74
2023/07/18 15:24:40;;;;;;;3.15;1.73;;;;;31.20;101064.00;;;;10115309;29;20294;-75
2023/07/18 15:29:43;;;;;;;5.00;1.58;;;;;30.40;101076.00;;;;10113129;29;20211;-74
2023/07/18 15:34:44;;;;;;;3.20;2.85;;;;;31.10;101054.00;;;;10121080;29;20224;-77
2023/07/18 15:39:46;;;;;;;3.47;1.85;;;;;32.30;101045.00;;;;10124368;29;20712;-76
2023/07/18 15:44:47;;;;;;;3.45;1.58;;;;;31.90;101048.00;;;;10125318;29;20208;-76
2023/07/18 15:49:49;;;;;;;3.70;1.85;;;;;30.60;101055.00;;;;10121444;29;20224;-77
2023/07/18 15:54:50;;;;;;;2.53;1.75;;;;;28.70;101050.00;;;;10110760;29;20658;-74
2023/07/18 15:59:51;;;;;;;2.85;1.50;;;;;27.60;101051.00;;;;10135666;29;20227;-74
2023/07/18 16:04:53;;;;;;;7.05;1.88;;;;;27.30;101042.00;;;;10126739;29;20650;-74
2023/07/18 16:09:58;;;;;;;2.13;1.52;;;;;27.40;101027.00;;;;10109435;29;20218;-76
2023/07/18 16:14:59;;;;;;;2.38;1.65;;;;;27.30;101028.00;;;;10130152;29;20226;-75
2023/07/18 16:20:00;;;;;;;4.00;1.98;;;;;26.90;101019.00;;;;10113298;29;20217;-76
2023/07/18 16:25:04;;;;;;;2.95;2.03;;;;;26.90;101018.00;;;;10117543;29;20207;-76
2023/07/18 16:30:06;;;;;;;5.72;2.08;;;;;27.00;101011.00;;;;10123361;29;20236;-76
2023/07/18 16:35:08;;;;;;;3.83;1.38;;;;;26.80;100998.00;;;;10111742;29;20207;-75
2023/07/18 16:40:10;;;;;;;2.70;1.50;;;;;26.60;101002.00;;;;10137972;29;20215;-76
2023/07/18 16:45:11;;;;;;;3.10;1.40;;;;;26.20;100998.00;;;;10124980;29;20570;-76
2023/07/18 16:50:12;;;;;;;2.88;1.55;;;;;26.10;101002.00;;;;10133508;29;20295;-76
2023/07/18 16:55:14;;;;;;;1.70;1.35;;;;;26.10;100989.00;;;;10128380;29;20211;-76
2023/07/18 17:00:16;;;;;;;3.30;1.58;;;;;25.90;100990.00;;;;10141586;29;20252;-75
2023/07/18 17:05:18;;;;;;;3.70;1.73;;;;;25.70;100987.00;;;;10121404;29;20318;-81
2023/07/18 17:10:19;;;;;;;3.42;1.65;;;;;25.60;100985.00;;;;10138515;29;20674;-75
2023/07/18 17:15:21;;;;;;;3.55;1.90;;;;;25.80;100984.00;;;;10131790;29;20283;-76
2023/07/18 17:20:22;;;;;;;2.00;1.80;;;;;26.00;100982.00;;;;10111630;29;20626;-78
2023/07/18 17:25:24;;;;;;;2.08;1.65;;;;;25.90;100984.00;;;;10133984;29;20282;-76
2023/07/18 17:30:27;;;;;;;2.42;1.58;;;;;25.80;100985.00;;;;10127776;29;20199;-76
2023/07/18 17:35:29;;;;;;;4.38;1.77;;;;;25.50;100984.00;;;;10148084;29;20209;-74
2023/07/18 17:40:30;;;;;;;4.35;1.60;;;;;25.30;100982.00;;;;10154782;29;20249;-75
2023/07/18 17:45:31;;;;;;;3.05;1.67;;;;;25.00;100980.00;;;;10108713;29;20548;-75
2023/07/18 17:50:33;;;;;;;4.22;1.65;;;;;24.80;100974.00;;;;10129452;29;20214;-75
2023/07/18 17:55:34;;;;;;;4.40;1.60;;;;;24.70;100973.00;;;;10110620;29;20647;-75
2023/07/18 18:00:35;;;;;;;3.53;1.77;;;;;24.60;100974.00;;;;10124276;29;20222;-74
2023/07/18 18:05:45;;;;;;;3.28;1.58;;;;;24.40;100973.00;;;;10113061;29;20207;-75
2023/07/18 18:10:47;;;;;;;7.75;2.45;;;;;24.30;100972.00;;;;10139168;29;20667;-76
2023/07/18 18:15:48;;;;;;;4.20;1.50;;;;;24.20;100971.00;;;;10136975;29;20417;-79
2023/07/18 18:21:08;;;;;;;3.42;1.70;;;;;24.20;100968.00;;;;10139738;29;20215;-79
2023/07/18 18:26:10;;;;;;;3.00;1.60;;;;;24.10;100966.00;;;;10125548;29;20578;-76
2023/07/18 18:31:11;;;;;;;3.65;1.73;;;;;23.90;100970.00;;;;10137281;29;20690;-76
2023/07/18 18:36:12;;;;;;;4.32;1.58;;;;;23.70;100976.00;;;;10132129;29;20264;-76
2023/07/18 18:41:14;;;;;;;3.70;1.70;;;;;23.50;100978.00;;;;10150510;29;20223;-79
2023/07/18 18:46:15;;;;;;;7.20;2.63;;;;;23.30;100979.00;;;;10131212;29;20619;-79
2023/07/18 18:51:17;;;;;;;9.13;2.50;;;;;23.00;100974.00;;;;10119874;29;20208;-76
2023/07/18 18:56:18;;;;;;;4.30;2.15;;;;;22.70;100958.00;;;;10132931;29;20211;-78
2023/07/18 19:01:20;;;;;;;4.45;1.85;;;;;22.40;100958.00;;;;10152422;29;20223;-79
2023/07/18 19:06:22;;;;;;;3.47;1.50;;;;;22.20;100958.00;;;;10110605;29;20686;-76
2023/07/18 19:11:23;;;;;;;5.30;1.60;;;;;22.00;100956.00;;;;10118349;29;20212;-79
2023/07/18 19:16:26;;;;;;;5.45;1.65;;;;;21.80;100955.00;;;;10121756;29;20230;-79
2023/07/18 19:21:40;;;;;;;4.25;1.75;;;;;21.60;100959.00;;;;10144056;29;20286;-76
2023/07/18 19:26:42;;;;;;;3.85;1.60;;;;;21.50;100969.00;;;;10121457;29;20204;-76
2023/07/18 19:31:43;;;;;;;3.53;1.55;;;;;21.20;100964.00;;;;10104738;29;20280;-79
2023/07/18 19:36:44;;;;;;;4.15;2.00;;;;;21.10;100969.00;;;;10122892;29;20203;-76
2023/07/18 19:41:49;;;;;;;4.07;1.95;;;;;21.00;100971.00;;;;10126598;29;20230;-80
2023/07/18 19:46:50;;;;;;;4.43;2.08;;;;;20.90;100970.00;;;;10120355;29;20286;-80
2023/07/18 19:51:53;;;;;;;4.45;1.73;;;;;20.70;100972.00;;;;10146529;29;20229;-78
2023/07/18 19:56:54;;;;;;;4.80;1.80;;;;;20.60;100976.00;;;;10141930;29;20203;-80
2023/07/18 20:01:55;;;;;;;6.57;1.73;;;;;20.50;100978.00;;;;10128742;29;20230;-79
2023/07/18 20:06:57;;;;;;;4.97;1.52;;;;;20.30;100990.00;;;;10128219;29;20268;-79
2023/07/18 20:11:58;;;;;;;5.32;1.95;;;;;20.20;100987.00;;;;10123170;29;20277;-79
2023/07/18 20:16:59;;;;;;;3.00;1.27;;;;;20.10;100987.00;;;;10100427;29;20212;-79
2023/07/18 20:22:00;;;;;;;5.07;1.40;;;;;20.00;100993.00;;;;10132402;29;20314;-78
2023/07/18 20:27:02;;;;;;;3.17;1.40;;;;;19.80;100990.00;;;;10129870;29;20646;-79
2023/07/18 20:32:04;;;;;;;5.60;1.67;;;;;19.70;101004.00;;;;10130046;29;20282;-78
2023/07/18 20:37:06;;;;;;;3.00;1.52;;;;;19.50;101001.00;;;;10135409;29;20688;-78
2023/07/18 20:42:07;;;;;;;7.53;1.33;;;;;19.40;100988.00;;;;10162251;29;20233;-78
2023/07/18 20:47:09;;;;;;;5.78;1.63;;;;;19.20;100996.00;;;;10152935;29;20211;-78
2023/07/18 20:52:10;;;;;;;6.88;1.40;;;;;19.10;100997.00;;;;10136405;29;20264;-78
2023/07/18 20:57:11;;;;;;;3.65;1.30;;;;;19.00;101000.00;;;;10135767;29;20369;-78
2023/07/18 21:02:13;;;;;;;6.05;1.83;;;;;18.80;101004.00;;;;10135460;29;20578;-79
2023/07/18 21:07:14;;;;;;;3.92;1.80;;;;;18.60;101000.00;;;;10134835;29;20255;-78
2023/07/18 21:12:16;;;;;;;3.10;1.50;;;;;18.60;101000.00;;;;10170313;29;20246;-78
2023/07/18 21:17:18;;;;;;;5.57;1.10;;;;;18.50;101005.00;;;;10143203;29;20211;-78
2023/07/18 21:22:19;;;;;;;4.05;1.58;;;;;18.50;101007.00;;;;10134151;29;20309;-78
2023/07/18 21:27:20;;;;;;;4.90;1.80;;;;;18.50;101004.00;;;;10133754;29;20207;-79
2023/07/18 21:32:21;;;;;;;3.60;1.52;;;;;18.50;100993.00;;;;10134437;29;20623;-79
2023/07/18 21:37:23;;;;;;;4.82;1.40;;;;;18.40;101003.00;;;;10135120;29;20654;-78
2023/07/18 21:42:25;;;;;;;9.48;1.85;;;;;18.30;101007.00;;;;10133945;29;20215;-78
2023/07/18 21:47:26;;;;;;;3.63;1.30;;;;;18.20;100996.00;;;;10146265;29;20577;-78
2023/07/18 21:52:28;;;;;;;5.07;2.10;;;;;18.00;100987.00;;;;10134317;29;20550;-78
2023/07/18 21:57:29;;;;;;;4.22;1.85;;;;;17.90;100985.00;;;;10117601;29;20306;-78
2023/07/18 22:02:34;;;;;;;7.15;1.80;;;;;17.80;100988.00;;;;10139868;29;20712;-78
2023/07/18 22:07:36;;;;;;;10.95;6.55;;;;;17.70;100986.00;;;;10123907;29;20218;-78
2023/07/18 22:12:37;;;;;;;7.28;2.72;;;;;17.60;100987.00;;;;10139605;29;20207;-78
2023/07/18 22:17:41;;;;;;;3.45;2.40;;;;;17.50;100979.00;;;;10122968;29;20235;-78
2023/07/18 22:22:42;;;;;;;7.63;1.65;;;;;17.40;100982.00;;;;10101815;29;20220;-78
2023/07/18 22:27:44;;;;;;;3.45;1.70;;;;;17.20;100975.00;;;;10133940;29;20263;-76
2023/07/18 22:32:45;;;;;;;1.45;1.35;;;;;17.10;100974.00;;;;10131206;29;20216;-78
2023/07/18 22:37:47;;;;;;;5.53;1.60;;;;;17.00;100977.00;;;;10137572;29;20200;-77
2023/07/18 22:42:48;;;;;;;4.63;1.60;;;;;16.90;100977.00;;;;10117798;29;20325;-76
2023/07/18 22:47:49;;;;;;;2.75;1.80;;;;;16.70;100982.00;;;;10125944;29;20667;-75
2023/07/18 22:52:51;;;;;;;3.40;1.55;;;;;16.60;100985.00;;;;10139168;29;20632;-74
2023/07/18 22:57:52;;;;;;;5.18;1.65;;;;;16.60;100980.00;;;;10137313;29;20215;-74
2023/07/18 23:02:53;;;;;;;5.35;2.00;;;;;16.50;100984.00;;;;10139678;29;20559;-74
2023/07/18 23:07:55;;;;;;;6.68;1.83;;;;;16.40;100986.00;;;;10140081;29;20211;-73
2023/07/18 23:12:57;;;;;;;3.63;1.73;;;;;16.30;100985.00;;;;10137028;29;20223;-74
2023/07/18 23:17:59;;;;;;;4.80;1.92;;;;;16.20;100983.00;;;;10109942;29;20211;-79
2023/07/18 23:23:02;;;;;;;6.30;2.08;;;;;16.20;100986.00;;;;10142499;29;20606;-76
2023/07/18 23:28:04;;;;;;;2.85;1.75;;;;;16.20;100972.00;;;;10100793;29;20256;-74
2023/07/18 23:33:05;;;;;;;4.63;1.90;;;;;16.10;100965.00;;;;10094001;29;20685;-73
2023/07/18 23:38:07;;;;;;;6.13;2.10;;;;;16.00;100960.00;;;;10143987;29;20215;-74
2023/07/18 23:43:09;;;;;;;4.00;1.90;;;;;15.90;100957.00;;;;10132955;29;20227;-79
2023/07/18 23:48:10;;;;;;;5.45;2.70;;;;;15.90;100972.00;;;;10113694;29;20736;-77
2023/07/18 23:53:12;;;;;;;6.40;2.65;;;;;15.80;100969.00;;;;10152085;29;20199;-74
2023/07/18 23:58:13;;;;;;;4.78;2.25;;;;;15.70;100957.00;;;;10104871;29;20328;-80
